18:55
Airports
Links
Donate
Help keep this website running!
PayPal
Bitcoin
METAR
RJTY 221827Z AUTO 01004KT 3SM +RA BR SCT002 BKN014 OVC027 18/17 A3003 RMK AO2 CIG 014V038 SLP170 FZRANO $
Current Weather Conditions at RJTY
MVFR 18:27:00 22-09-17
Automated station, no observer
Altimeter:30.03 hg
Temp:18.0°c 64°f
Dew point:17.0°c 63°f
Wind:4 knots, 4.6 mph, 2 m/s, from 10°
Visibility:3.0 statute miles
2700(OVC) Overcast
1400(BKN) Broken
200(SCT) Scattered
Past METAR reports
IFR 18:22:00 22-09-17
Automated station, no observer
Altimeter:30.02 hg
Temp:18.0°c 64°f
Dew point:17.0°c 63°f
Wind:7 knots, 8.1 mph, 4 m/s, from 330°
Visibility:2.0 statute miles
3400(OVC) Overcast
200(SCT) Scattered
RJTY 221822Z AUTO 33007KT 2SM +RA BR SCT002 OVC034 18/17 A3002 RMK AO2 VIS 2V4 SLP166 FZRANO $
IFR 18:17:00 22-09-17
Automated station, no observer
Altimeter:30.02 hg
Temp:18.0°c 64°f
Dew point:17.0°c 63°f
Wind:8 knots, 9.2 mph, 4 m/s, from 340°
Visibility:2.5 statute miles
3800(OVC) Overcast
200(SCT) Scattered
RJTY 221817Z AUTO 34008KT 2 1/2SM +RA BR SCT002 OVC038 18/17 A3002 RMK AO2 VIS 2 1/2V5 SLP166 FZRANO $
MVFR 18:12:00 22-09-17
Automated station, no observer
Altimeter:30.03 hg
Temp:18.0°c 64°f
Dew point:18.0°c 64°f
Wind:10 knots, 11.5 mph, 5 m/s, from 320°
Visibility:4.0 statute miles
3900(OVC) Overcast
200(FEW) A few
RJTY 221812Z AUTO 32010KT 4SM RA BR FEW002 OVC039 18/18 A3003 RMK AO2 PRESRR SLP170 FZRANO $
VFR 17:56:00 22-09-17
Automated station, no observer
Altimeter:30.01 hg
Temp:18.3°c 64°f
Dew point:17.3°c 63°f
Wind:9 knots, 10.4 mph, 5 m/s, from 340°
Visibility:9.0 statute miles
4100(OVC) Overcast
RJTY 221756Z AUTO 34009KT 9SM RA OVC041 18/17 A3001 RMK AO2 RAE1659RAB01 SLP163 P0011 60058 T01830173 10197 20181 57008 FZRANO $
VFR 17:01:00 22-09-17
Automated station, no observer
Altimeter:30.01 hg
Temp:18.0°c 64°f
Dew point:17.0°c 63°f
Wind:7 knots, 8.1 mph, 4 m/s, from 320°
Visibility:9.0 statute miles
5500(BKN) Broken
3800(BKN) Broken
2400(FEW) A few
RJTY 221701Z AUTO 32007KT 9SM -RA FEW024 BKN038 BKN055 18/17 A3001 RMK AO2 RAE1659RAB01 SLP161 FZRANO $
VFR 16:59:00 22-09-17
Automated station, no observer
Altimeter:30.02 hg
Temp:18.0°c 64°f
Dew point:17.0°c 63°f
Wind:7 knots, 8.1 mph, 4 m/s, from 310°
Visibility:9.0 statute miles
5500(BKN) Broken
3800(BKN) Broken
2400(FEW) A few
RJTY 221659Z AUTO 31007KT 9SM FEW024 BKN038 BKN055 18/17 A3002 RMK AO2 RAE59 SLP165 FZRANO $
TAF
TAF RJTY 221300Z 2213/2319 07009KT 6000 -SHRA FEW007 BKN015 OVC030 QNH3001INS BECMG 2216/2217 02009KT 3200 -SHRA BR BKN007 QNH2994INS TEMPO 2217/2222 02012G18KT BECMG 2300/2301 02009KT 9999 VCSH SCT007 BKN020 QNH2996INS BECMG 2302/2303 02006KT 9999 NSW SCT015 BKN040 QNH2991INS BECMG 2314/2315 VRB06KT 6000 BR SCT020 QNH2995INS TX24/2305Z TN18/2221Z LAST NO AMDS AFT 2213 NEXT 2221
Forecast at RJTY
13:00 22-09-17 to 16:00 22-09-17
-SHRA
Wind:9 Knots from 70°
Visibility:3.73 statute miles
700FEW A few
1500BKN Broken
3000OVC Overcast
BECMG 16:00 22-09-17 to 00:00 23-09-17
-SHRA BR
Wind:9 Knots from 20°
Visibility:1.99 statute miles
700BKN Broken
TEMPO 17:00 22-09-17 to 22:00 22-09-17
Wind:12 Knots from 20°
BECMG 00:00 23-09-17 to 02:00 23-09-17
VCSH
Wind:9 Knots from 20°
Visibility:6.21 statute miles
700SCT Scattered
2000BKN Broken
BECMG 02:00 23-09-17 to 14:00 23-09-17
NSW
Wind:6 Knots from 20°
Visibility:6.21 statute miles
1500SCT Scattered
4000BKN Broken
BECMG 14:00 23-09-17 to 19:00 23-09-17
BR
Wind:6 Knots from 360°
Visibility:3.73 statute miles
2000SCT Scattered